Time,TemperatureF,DewpointF,PressureIn,WindDirection,WindDirectionDegrees,WindSpeedMPH,WindSpeedGustMPH,Humidity,HourlyPrecipIn,Conditions,Clouds,dailyrainin,SoftwareType,DateUTC
2013-09-11 00:14:00,62.1,62.0,30.04,ESE,111,0.0,0.0,98,0.00,,,0.00,weatherlink.com 1.10,2013-09-11 04:14:00,
2013-09-11 00:29:00,62.0,62.0,30.04,ESE,111,0.0,0.0,98,0.00,,,0.00,weatherlink.com 1.10,2013-09-11 04:29:00,
2013-09-11 00:44:00,62.1,62.0,30.03,ESE,111,0.0,0.0,98,0.00,,,0.00,weatherlink.com 1.10,2013-09-11 04:44:00,
2013-09-11 00:59:00,62.2,62.0,30.03,ESE,111,0.0,0.0,98,0.00,,,0.00,weatherlink.com 1.10,2013-09-11 04:59:00,
2013-09-11 01:14:00,62.1,62.0,30.03,ESE,111,0.0,0.0,98,0.00,,,0.00,weatherlink.com 1.10,2013-09-11 05:14:00,
2013-09-11 01:29:00,62.1,62.0,30.02,ESE,111,0.0,1.0,98,0.00,,,0.00,weatherlink.com 1.10,2013-09-11 05:29:00,
2013-09-11 01:44:00,62.0,62.0,30.02,ESE,111,0.0,0.0,98,0.00,,,0.00,weatherlink.com 1.10,2013-09-11 05:44:00,
2013-09-11 01:59:00,62.1,62.0,30.01,ESE,111,0.0,0.0,98,0.00,,,0.00,weatherlink.com 1.10,2013-09-11 05:59:00,
2013-09-11 02:15:00,62.2,62.0,30.01,ESE,111,0.0,1.0,98,0.00,,,0.00,weatherlink.com 1.10,2013-09-11 06:15:00,
2013-09-11 02:30:00,62.2,62.0,30.01,ESE,111,0.0,0.0,98,0.00,,,0.00,weatherlink.com 1.10,2013-09-11 06:30:00,
2013-09-11 02:45:00,62.2,62.0,30.01,ESE,111,0.0,0.0,98,0.00,,,0.00,weatherlink.com 1.10,2013-09-11 06:45:00,
2013-09-11 03:00:00,62.0,62.0,30.01,ESE,111,0.0,0.0,98,0.00,,,0.00,weatherlink.com 1.10,2013-09-11 07:00:00,
2013-09-11 03:15:00,62.2,62.0,30.01,ESE,111,0.0,1.0,98,0.00,,,0.00,weatherlink.com 1.10,2013-09-11 07:15:00,
2013-09-11 03:30:00,62.2,62.0,30.02,ESE,111,0.0,0.0,99,0.00,,,0.00,weatherlink.com 1.10,2013-09-11 07:30:00,
2013-09-11 03:45:00,62.1,62.0,30.02,ESE,111,0.0,0.0,98,0.00,,,0.00,weatherlink.com 1.10,2013-09-11 07:45:00,
2013-09-11 04:00:00,62.1,62.0,30.02,ESE,111,0.0,0.0,99,0.00,,,0.00,weatherlink.com 1.10,2013-09-11 08:00:00,
2013-09-11 04:15:00,62.3,62.0,30.02,ESE,111,0.0,0.0,99,0.00,,,0.00,weatherlink.com 1.10,2013-09-11 08:15:00,
2013-09-11 04:30:00,62.2,62.0,30.02,ESE,111,0.0,0.0,98,0.00,,,0.00,weatherlink.com 1.10,2013-09-11 08:30:00,
2013-09-11 04:45:00,62.2,62.0,30.01,ESE,111,0.0,0.0,99,0.00,,,0.00,weatherlink.com 1.10,2013-09-11 08:45:00,
2013-09-11 05:00:00,62.3,62.0,30.02,ESE,111,0.0,1.0,99,0.00,,,0.00,weatherlink.com 1.10,2013-09-11 09:00:00,
2013-09-11 05:15:00,62.1,62.0,30.02,NW,319,0.0,1.0,99,0.00,,,0.00,weatherlink.com 1.10,2013-09-11 09:15:00,
2013-09-11 05:30:00,62.3,62.0,30.02,NW,319,0.0,0.0,99,0.00,,,0.00,weatherlink.com 1.10,2013-09-11 09:30:00,
2013-09-11 05:45:00,62.5,62.0,30.01,SW,234,0.0,1.0,99,0.00,,,0.00,weatherlink.com 1.10,2013-09-11 09:45:00,
2013-09-11 06:00:00,62.3,62.0,30.01,SW,234,0.0,0.0,99,0.00,,,0.00,weatherlink.com 1.10,2013-09-11 10:00:00,
2013-09-11 06:15:00,62.4,62.0,30.01,SW,234,0.0,0.0,99,0.00,,,0.00,weatherlink.com 1.10,2013-09-11 10:15:00,
2013-09-11 06:30:00,62.5,62.0,30.01,SW,234,0.0,0.0,99,0.00,,,0.00,weatherlink.com 1.10,2013-09-11 10:30:00,
2013-09-11 06:45:00,62.4,62.0,30.01,SW,234,0.0,0.0,99,0.00,,,0.00,weatherlink.com 1.10,2013-09-11 10:45:00,
2013-09-11 07:00:00,62.7,63.0,30.01,SW,234,0.0,0.0,99,0.00,,,0.00,weatherlink.com 1.10,2013-09-11 11:00:00,
2013-09-11 07:15:00,62.9,63.0,30.02,SW,234,0.0,0.0,99,0.00,,,0.00,weatherlink.com 1.10,2013-09-11 11:15:00,
2013-09-11 07:30:00,63.5,63.0,30.01,SW,234,0.0,0.0,99,0.00,,,0.00,weatherlink.com 1.10,2013-09-11 11:30:00,
2013-09-11 07:45:00,64.0,64.0,30.01,SW,234,0.0,0.0,99,0.00,,,0.00,weatherlink.com 1.10,2013-09-11 11:45:00,
2013-09-11 08:00:00,64.4,64.0,30.01,SW,234,0.0,0.0,99,0.00,,,0.00,weatherlink.com 1.10,2013-09-11 12:00:00,
2013-09-11 08:15:00,64.7,64.0,30.01,SW,234,0.0,1.0,99,0.00,,,0.00,weatherlink.com 1.10,2013-09-11 12:15:00,
2013-09-11 08:30:00,66.2,66.0,30.00,SW,234,0.0,0.0,99,0.00,,,0.00,weatherlink.com 1.10,2013-09-11 12:30:00,
2013-09-11 08:45:00,67.7,67.0,30.00,SW,234,0.0,0.0,99,0.00,,,0.00,weatherlink.com 1.10,2013-09-11 12:45:00,
2013-09-11 09:00:00,68.5,68.0,30.00,WSW,246,0.0,1.0,99,0.00,,,0.00,weatherlink.com 1.10,2013-09-11 13:00:00,
2013-09-11 09:15:00,69.8,69.0,30.00,WSW,244,0.0,1.0,98,0.00,,,0.00,weatherlink.com 1.10,2013-09-11 13:15:00,
2013-09-11 09:30:00,71.5,70.0,30.00,WNW,302,0.0,1.0,95,0.00,,,0.00,weatherlink.com 1.10,2013-09-11 13:30:00,
2013-09-11 09:45:00,74.0,71.0,30.00,WNW,300,0.0,3.0,91,0.00,,,0.00,weatherlink.com 1.10,2013-09-11 13:45:00,
2013-09-11 10:00:00,76.0,73.0,30.00,WSW,244,1.0,3.0,91,0.00,,,0.00,weatherlink.com 1.10,2013-09-11 14:00:00,
2013-09-11 10:15:00,78.2,74.0,29.99,West,271,0.0,2.0,87,0.00,,,0.00,weatherlink.com 1.10,2013-09-11 14:15:00,
2013-09-11 10:31:00,79.8,75.0,29.98,ESE,115,3.0,4.0,84,0.00,,,0.00,weatherlink.com 1.10,2013-09-11 14:31:00,
2013-09-11 10:46:00,79.9,74.0,29.97,SE,138,0.0,4.0,81,0.00,,,0.00,weatherlink.com 1.10,2013-09-11 14:46:00,
2013-09-11 11:01:00,80.1,75.0,29.97,SE,142,6.0,7.0,83,0.00,,,0.00,weatherlink.com 1.10,2013-09-11 15:01:00,
2013-09-11 11:16:00,81.2,76.0,29.97,SSW,205,1.0,3.0,85,0.00,,,0.00,weatherlink.com 1.10,2013-09-11 15:16:00,
2013-09-11 11:31:00,82.1,75.0,29.96,SSE,166,0.0,3.0,80,0.00,,,0.00,weatherlink.com 1.10,2013-09-11 15:31:00,
2013-09-11 11:46:00,82.6,76.0,29.96,South,187,0.0,4.0,81,0.00,,,0.00,weatherlink.com 1.10,2013-09-11 15:46:00,
2013-09-11 12:01:00,83.6,78.0,29.96,South,172,0.0,2.0,82,0.00,,,0.00,weatherlink.com 1.10,2013-09-11 16:01:00,
2013-09-11 12:16:00,84.7,76.0,29.95,ESE,113,0.0,2.0,76,0.00,,,0.00,weatherlink.com 1.10,2013-09-11 16:16:00,
2013-09-11 12:31:00,85.5,78.0,29.95,SSE,153,0.0,4.0,79,0.00,,,0.00,weatherlink.com 1.10,2013-09-11 16:31:00,
2013-09-11 12:46:00,85.7,78.0,29.95,SSW,196,1.0,4.0,78,0.00,,,0.00,weatherlink.com 1.10,2013-09-11 16:46:00,
2013-09-11 13:01:00,85.3,77.0,29.95,SSW,192,1.0,4.0,76,0.00,,,0.00,weatherlink.com 1.10,2013-09-11 17:01:00,
2013-09-11 13:16:00,85.8,77.0,29.94,SE,140,3.0,4.0,76,0.00,,,0.00,weatherlink.com 1.10,2013-09-11 17:16:00,
2013-09-11 13:31:00,85.1,76.0,29.94,ESE,103,0.0,5.0,75,0.00,,,0.00,weatherlink.com 1.10,2013-09-11 17:31:00,
2013-09-11 13:46:00,85.5,77.0,29.93,South,184,2.0,8.0,76,0.00,,,0.00,weatherlink.com 1.10,2013-09-11 17:46:00,
2013-09-11 14:16:00,85.0,77.0,29.92,SW,224,1.0,4.0,76,0.00,,,0.00,weatherlink.com 1.10,2013-09-11 18:16:00,
2013-09-11 14:31:00,85.7,77.0,29.92,SW,215,0.0,4.0,76,0.00,,,0.00,weatherlink.com 1.10,2013-09-11 18:31:00,
2013-09-11 14:46:00,85.9,77.0,29.91,SE,124,0.0,2.0,75,0.00,,,0.00,weatherlink.com 1.10,2013-09-11 18:46:00,
2013-09-11 15:01:00,85.5,76.0,29.91,SSE,155,0.0,4.0,74,0.00,,,0.00,weatherlink.com 1.10,2013-09-11 19:01:00,
2013-09-11 15:16:00,84.8,77.0,29.91,SSW,210,0.0,4.0,76,0.00,,,0.00,weatherlink.com 1.10,2013-09-11 19:16:00,
2013-09-11 15:31:00,85.2,77.0,29.91,SE,142,0.0,2.0,77,0.00,,,0.00,weatherlink.com 1.10,2013-09-11 19:31:00,
2013-09-11 15:46:00,84.7,78.0,29.91,SSE,168,0.0,3.0,79,0.00,,,0.00,weatherlink.com 1.10,2013-09-11 19:46:00,
2013-09-11 16:01:00,86.5,75.0,29.90,SW,215,0.0,3.0,69,0.00,,,0.00,weatherlink.com 1.10,2013-09-11 20:01:00,
2013-09-11 16:16:00,85.8,76.0,29.89,NNE,26,2.0,3.0,73,0.00,,,0.00,weatherlink.com 1.10,2013-09-11 20:16:00,
2013-09-11 16:32:00,85.2,75.0,29.89,WSW,257,1.0,4.0,71,0.00,,,0.00,weatherlink.com 1.10,2013-09-11 20:32:00,
2013-09-11 16:47:00,84.8,76.0,29.88,SW,225,0.0,3.0,75,0.00,,,0.00,weatherlink.com 1.10,2013-09-11 20:47:00,
2013-09-11 17:02:00,83.6,76.0,29.88,NW,319,0.0,3.0,77,0.00,,,0.00,weatherlink.com 1.10,2013-09-11 21:02:00,
2013-09-11 17:17:00,83.3,76.0,29.88,NW,319,0.0,0.0,79,0.00,,,0.00,weatherlink.com 1.10,2013-09-11 21:17:00,
2013-09-11 17:32:00,82.0,76.0,29.87,SSE,154,0.0,1.0,83,0.00,,,0.00,weatherlink.com 1.10,2013-09-11 21:32:00,
2013-09-11 17:47:00,80.9,76.0,29.87,SSE,154,0.0,0.0,86,0.00,,,0.00,weatherlink.com 1.10,2013-09-11 21:47:00,
2013-09-11 18:02:00,80.1,76.0,29.88,SSE,154,0.0,0.0,88,0.00,,,0.00,weatherlink.com 1.10,2013-09-11 22:02:00,
2013-09-11 18:17:00,79.4,76.0,29.88,SSE,153,0.0,0.0,90,0.00,,,0.00,weatherlink.com 1.10,2013-09-11 22:17:00,
2013-09-11 18:32:00,78.2,75.0,29.88,SSE,153,0.0,0.0,91,0.00,,,0.00,weatherlink.com 1.10,2013-09-11 22:32:00,
2013-09-11 18:47:00,77.0,75.0,29.88,SSE,153,0.0,0.0,93,0.00,,,0.00,weatherlink.com 1.10,2013-09-11 22:47:00,
2013-09-11 19:02:00,75.8,73.0,29.89,SSE,153,0.0,0.0,92,0.00,,,0.00,weatherlink.com 1.10,2013-09-11 23:02:00,
2013-09-11 19:17:00,74.9,73.0,29.89,SSE,153,0.0,0.0,93,0.00,,,0.00,weatherlink.com 1.10,2013-09-11 23:17:00,
2013-09-11 19:32:00,74.1,72.0,29.90,SSE,153,0.0,0.0,93,0.00,,,0.00,weatherlink.com 1.10,2013-09-11 23:32:00,
2013-09-11 19:47:00,73.6,71.0,29.91,SSE,153,0.0,0.0,92,0.00,,,0.00,weatherlink.com 1.10,2013-09-11 23:47:00,
2013-09-11 20:02:00,72.7,71.0,29.92,SSE,153,0.0,0.0,93,0.00,,,0.00,weatherlink.com 1.10,2013-09-12 00:02:00,
2013-09-11 20:17:00,72.3,71.0,29.93,SSE,153,0.0,0.0,94,0.00,,,0.00,weatherlink.com 1.10,2013-09-12 00:17:00,
2013-09-11 20:32:00,74.1,71.0,29.94,North,355,4.0,9.0,90,0.00,,,0.00,weatherlink.com 1.10,2013-09-12 00:32:00,
2013-09-11 20:47:00,75.3,68.0,29.92,NNW,328,0.0,7.0,79,0.00,,,0.00,weatherlink.com 1.10,2013-09-12 00:47:00,
2013-09-11 21:02:00,74.2,68.0,29.92,NNW,328,0.0,1.0,82,0.00,,,0.00,weatherlink.com 1.10,2013-09-12 01:02:00,
2013-09-11 21:17:00,72.9,68.0,29.92,NNW,328,0.0,0.0,83,0.00,,,0.00,weatherlink.com 1.10,2013-09-12 01:17:00,
2013-09-11 21:32:00,72.1,69.0,29.93,NNW,328,1.0,1.0,89,0.00,,,0.00,weatherlink.com 1.10,2013-09-12 01:32:00,
2013-09-11 21:47:00,71.3,68.0,29.95,WNW,289,2.0,3.0,90,0.01,,,0.01,weatherlink.com 1.10,2013-09-12 01:47:00,
2013-09-11 22:02:00,69.7,68.0,29.94,WSW,242,0.0,3.0,94,0.02,,,0.02,weatherlink.com 1.10,2013-09-12 02:02:00,
2013-09-11 22:17:00,69.4,68.0,29.93,North,5,0.0,4.0,96,0.05,,,0.05,weatherlink.com 1.10,2013-09-12 02:17:00,
2013-09-11 22:32:00,69.5,69.0,29.93,WNW,289,0.0,2.0,97,0.08,,,0.08,weatherlink.com 1.10,2013-09-12 02:32:00,
2013-09-11 22:47:00,70.3,70.0,30.00,WNW,284,3.0,7.0,98,0.09,,,0.10,weatherlink.com 1.10,2013-09-12 02:47:00,
2013-09-11 23:02:00,70.0,69.0,29.98,West,276,2.0,7.0,97,0.14,,,0.16,weatherlink.com 1.10,2013-09-12 03:02:00,
2013-09-11 23:17:00,69.6,69.0,29.98,NNW,337,0.0,4.0,97,0.12,,,0.17,weatherlink.com 1.10,2013-09-12 03:17:00,
2013-09-11 23:32:00,69.4,69.0,29.97,North,360,1.0,3.0,97,0.11,,,0.19,weatherlink.com 1.10,2013-09-12 03:32:00,
2013-09-11 23:47:00,69.3,69.0,29.96,NNW,327,1.0,7.0,98,0.12,,,0.22,weatherlink.com 1.10,2013-09-12 03:47:00,